OOMS/MCT METAR and TAF weather

Enter ICAO airport designator
Station Type Date Time Source
OOMS METAR 2020/01/26 18:50 UTC NOAA

OOMS 261850Z 27012KT 240V300 5000 NSC 20/05 Q1017 NOSIG


Station Type Date Time Source
OOMS Decoded METAR 2020/01/26 18:50 UTC NOAA

Seeb, International Airport, Oman (OOMS) 23-35N 058-17E 17M
Jan 26, 2020 - 01:50 PM EST / 2020.01.26 1850 UTC
Wind: from the W (270 degrees) at 14 MPH (12 KT) (direction variable):0
Visibility: 3 mile(s):0
Temperature: 68 F (20 C)
Dew Point: 41 F (5 C)
Relative Humidity: 37%
Pressure (altimeter): 30.03 in. Hg (1017 hPa)
ob: OOMS 261850Z 27012KT 240V300 5000 NSC 20/05 Q1017 NOSIG
cycle: 19

Station Type Date Time Source
OOMS TAF 2020/01/26 18:03 UTC NOAA

TAF OOMS 261700Z 2618/2724 26014KT 8000 SCT025 PROB30
TEMPO 2705/2709 RA BKN025
BECMG 2706/2708 35012KT
BECMG 2715/2717 24006KT PROB30
TEMPO 2722/2724 RA BKN025

Example: see airport list